Time;durP1;ratioP1;P1;durP2;ratioP2;P2;SDS_P1;SDS_P2;PMS_P1;PMS_P2;Temp;Humidity;BMP_temperature;BMP_pressure;BME280_temperature;BME280_humidity;BME280_pressure;Samples;Min_cycle;Max_cycle;Signal;HPM_P1;HPM_P2
2021/11/30 00:18:32;;;;;;;9.57;5.35;;;;;;;;;;4794590;28;20199;-58
2021/11/30 00:21:09;;;;;;;7.22;4.90;;;;;;;;;;4226434;33;20110;-60
2021/11/30 00:23:35;;;;;;;12.50;6.37;;;;;;;;;;4218424;33;20235;-61
2021/11/30 00:26:02;;;;;;;8.65;5.65;;;;;;;;;;4218955;34;20285;-60
2021/11/30 00:28:28;;;;;;;9.65;6.05;;;;;;;;;;4223186;33;20097;-60
2021/11/30 00:30:54;;;;;;;9.20;6.40;;;;;;;;;;4233050;33;20524;-63
2021/11/30 00:33:21;;;;;;;11.43;7.00;;;;;;;;;;4208375;33;20128;-62
2021/11/30 00:35:47;;;;;;;8.73;6.12;;;;;;;;;;4219146;33;20113;-63
2021/11/30 00:38:14;;;;;;;7.93;6.45;;;;;;;;;;4221945;33;20236;-63
2021/11/30 00:40:41;;;;;;;9.00;7.53;;;;;;;;;;4206078;34;20189;-63
2021/11/30 00:43:08;;;;;;;7.87;5.90;;;;;;;;;;4219079;34;20124;-63
2021/11/30 00:45:50;;;;;;;7.80;6.93;;;;;;;;;;4206415;34;20097;-63
2021/11/30 00:48:21;;;;;;;7.35;6.57;;;;;;;;;;4218942;34;20101;-63
2021/11/30 00:50:49;;;;;;;8.73;6.93;;;;;;;;;;4218858;34;20209;-63
2021/11/30 00:53:15;;;;;;;8.55;6.37;;;;;;;;;;4218899;34;20508;-63
2021/11/30 00:55:41;;;;;;;9.70;7.28;;;;;;;;;;4231975;33;20211;-59
2021/11/30 00:58:08;;;;;;;5.95;5.20;;;;;;;;;;4232751;33;20139;-59
2021/11/30 01:00:35;;;;;;;7.57;6.00;;;;;;;;;;4232861;33;20116;-59
2021/11/30 01:03:06;;;;;;;9.52;5.90;;;;;;;;;;4232821;33;20105;-59
2021/11/30 01:05:32;;;;;;;6.95;6.10;;;;;;;;;;4232809;33;20123;-59
2021/11/30 01:07:58;;;;;;;8.52;6.07;;;;;;;;;;4219657;33;20116;-59
2021/11/30 01:10:25;;;;;;;10.35;6.07;;;;;;;;;;4232777;33;20125;-59
2021/11/30 01:12:51;;;;;;;6.62;5.93;;;;;;;;;;4232782;33;20529;-59
2021/11/30 01:15:18;;;;;;;7.47;4.90;;;;;;;;;;4232598;33;20172;-59
2021/11/30 01:17:44;;;;;;;9.55;6.30;;;;;;;;;;4219964;33;20192;-59
2021/11/30 01:20:11;;;;;;;7.65;6.00;;;;;;;;;;4228599;33;20130;-59
2021/11/30 01:22:39;;;;;;;9.38;5.65;;;;;;;;;;4205823;34;20197;-59
2021/11/30 01:25:05;;;;;;;7.90;5.35;;;;;;;;;;4218378;34;20104;-59
2021/11/30 01:27:32;;;;;;;7.60;5.87;;;;;;;;;;4218952;34;20108;-59
2021/11/30 01:29:58;;;;;;;7.05;4.53;;;;;;;;;;4218319;34;20534;-60
2021/11/30 01:32:24;;;;;;;7.50;5.32;;;;;;;;;;4218629;34;20114;-59
2021/11/30 01:34:50;;;;;;;9.50;5.95;;;;;;;;;;4205852;34;20121;-60
2021/11/30 01:37:16;;;;;;;7.22;5.72;;;;;;;;;;4218561;34;20136;-59
2021/11/30 01:39:46;;;;;;;8.40;5.90;;;;;;;;;;4218177;34;20763;-61
2021/11/30 01:42:13;;;;;;;8.63;6.95;;;;;;;;;;4218508;34;20109;-61
2021/11/30 01:45:03;;;;;;;8.82;5.87;;;;;;;;;;4205857;34;20129;-62
2021/11/30 01:50:00;;;;;;;8.85;5.80;;;;;;;;;;4218200;34;20114;-61
2021/11/30 01:52:27;;;;;;;7.45;5.80;;;;;;;;;;4205691;34;20439;-61
2021/11/30 01:54:53;;;;;;;6.75;5.50;;;;;;;;;;4225627;33;20672;-61
2021/11/30 01:57:21;;;;;;;7.93;5.75;;;;;;;;;;4219345;33;20128;-61
2021/11/30 01:59:48;;;;;;;7.90;5.50;;;;;;;;;;4232396;33;20485;-61
2021/11/30 02:02:15;;;;;;;8.50;6.53;;;;;;;;;;4232310;33;20132;-60
2021/11/30 02:04:42;;;;;;;7.72;5.18;;;;;;;;;;4232128;33;20104;-60
2021/11/30 02:07:08;;;;;;;7.15;5.43;;;;;;;;;;4232272;33;20109;-59
2021/11/30 02:09:38;;;;;;;5.95;4.95;;;;;;;;;;4232330;33;20205;-59
2021/11/30 02:12:06;;;;;;;8.68;6.15;;;;;;;;;;4219187;33;20444;-59
2021/11/30 02:14:33;;;;;;;7.62;5.72;;;;;;;;;;4219242;33;20112;-60
2021/11/30 02:17:00;;;;;;;7.70;6.12;;;;;;;;;;4232077;33;20097;-59
2021/11/30 02:19:27;;;;;;;7.65;5.70;;;;;;;;;;4231889;33;20124;-59
2021/11/30 02:21:53;;;;;;;7.93;6.07;;;;;;;;;;4222885;33;20193;-59
2021/11/30 02:24:20;;;;;;;7.62;5.30;;;;;;;;;;4205190;34;20494;-62
2021/11/30 02:26:46;;;;;;;7.20;5.40;;;;;;;;;;4217980;34;20177;-59
2021/11/30 02:29:12;;;;;;;9.38;5.43;;;;;;;;;;4218101;34;20557;-59
2021/11/30 02:31:48;;;;;;;8.50;5.68;;;;;;;;;;4217906;34;20359;-59
2021/11/30 02:34:16;;;;;;;6.80;5.78;;;;;;;;;;4218085;34;20105;-57
2021/11/30 02:39:14;;;;;;;10.38;5.65;;;;;;;;;;4217800;34;20136;-59
2021/11/30 02:41:41;;;;;;;8.82;6.35;;;;;;;;;;4204899;34;20112;-60
2021/11/30 02:44:08;;;;;;;8.77;6.25;;;;;;;;;;4205201;34;20101;-61
2021/11/30 02:46:44;;;;;;;8.20;4.50;;;;;;;;;;4204807;34;20140;-59
2021/11/30 02:49:14;;;;;;;7.35;5.95;;;;;;;;;;4203409;34;20133;-60
2021/11/30 02:51:43;;;;;;;7.82;5.90;;;;;;;;;;4215516;34;20114;-59
2021/11/30 02:54:11;;;;;;;7.07;4.78;;;;;;;;;;4203070;34;20220;-59
2021/11/30 02:56:42;;;;;;;7.05;5.57;;;;;;;;;;4215566;34;20203;-59
2021/11/30 02:59:08;;;;;;;6.53;5.57;;;;;;;;;;4203703;34;20109;-59
2021/11/30 03:01:36;;;;;;;5.90;5.30;;;;;;;;;;4204660;34;20115;-60
2021/11/30 03:04:28;;;;;;;6.60;5.80;;;;;;;;;;4218824;34;20169;-59
2021/11/30 03:06:56;;;;;;;6.40;5.25;;;;;;;;;;4203456;34;20109;-59
2021/11/30 03:09:22;;;;;;;7.95;5.35;;;;;;;;;;4204831;34;20212;-59
2021/11/30 03:11:49;;;;;;;7.93;5.10;;;;;;;;;;4217596;34;20135;-59
2021/11/30 03:14:16;;;;;;;8.13;5.50;;;;;;;;;;4217720;34;20217;-59
2021/11/30 03:16:42;;;;;;;10.70;6.43;;;;;;;;;;4204514;34;20470;-60
2021/11/30 03:19:08;;;;;;;7.68;4.85;;;;;;;;;;4217407;33;20133;-60
2021/11/30 03:21:34;;;;;;;7.15;5.60;;;;;;;;;;4218716;34;20144;-58
2021/11/30 03:24:01;;;;;;;7.82;6.47;;;;;;;;;;4219829;34;20569;-59
2021/11/30 03:26:27;;;;;;;6.05;4.53;;;;;;;;;;4219617;34;20113;-59
2021/11/30 03:28:54;;;;;;;8.70;6.10;;;;;;;;;;4219327;34;20125;-60
2021/11/30 03:34:12;;;;;;;7.18;6.40;;;;;;;;;;4218560;34;20094;-59
2021/11/30 03:36:39;;;;;;;8.40;5.65;;;;;;;;;;4219753;34;20449;-59
2021/11/30 03:39:11;;;;;;;8.40;7.00;;;;;;;;;;4219530;34;20120;-60
2021/11/30 03:41:37;;;;;;;6.28;4.95;;;;;;;;;;4206674;34;20569;-60
2021/11/30 03:44:05;;;;;;;10.25;6.07;;;;;;;;;;4219516;34;20094;-58
2021/11/30 03:46:31;;;;;;;10.05;6.43;;;;;;;;;;4219428;34;20470;-59
2021/11/30 03:48:58;;;;;;;11.65;6.85;;;;;;;;;;4219423;34;20267;-59
2021/11/30 03:51:25;;;;;;;8.52;6.45;;;;;;;;;;4219401;34;20109;-61
2021/11/30 03:53:51;;;;;;;7.28;4.90;;;;;;;;;;4219575;34;20105;-60
2021/11/30 03:56:17;;;;;;;15.18;6.75;;;;;;;;;;4219377;34;20121;-61
2021/11/30 03:58:43;;;;;;;7.75;6.18;;;;;;;;;;4219233;34;20152;-60
2021/11/30 04:01:10;;;;;;;8.38;6.22;;;;;;;;;;4219344;34;20116;-61
2021/11/30 04:03:38;;;;;;;8.70;5.95;;;;;;;;;;4219454;34;20086;-61
2021/11/30 04:06:04;;;;;;;8.60;5.50;;;;;;;;;;4219166;34;20132;-63
2021/11/30 04:08:31;;;;;;;8.80;5.62;;;;;;;;;;4219340;34;20116;-60
2021/11/30 04:10:57;;;;;;;6.30;4.75;;;;;;;;;;4218976;34;20196;-60
2021/11/30 04:13:23;;;;;;;7.50;4.85;;;;;;;;;;4219291;34;20125;-60
2021/11/30 04:15:49;;;;;;;9.57;4.68;;;;;;;;;;4219107;34;20120;-60
2021/11/30 04:18:15;;;;;;;10.07;5.45;;;;;;;;;;4218963;33;20121;-61
2021/11/30 04:20:42;;;;;;;9.63;5.12;;;;;;;;;;4218998;34;20107;-60
2021/11/30 04:23:08;;;;;;;7.90;5.65;;;;;;;;;;4219365;34;20125;-62
2021/11/30 04:25:35;;;;;;;6.03;4.68;;;;;;;;;;4219137;34;20517;-61
2021/11/30 04:28:02;;;;;;;7.72;4.80;;;;;;;;;;4219208;34;20588;-62
2021/11/30 04:30:28;;;;;;;8.27;5.28;;;;;;;;;;4218983;34;20124;-62
2021/11/30 04:32:54;;;;;;;8.30;5.05;;;;;;;;;;4219275;34;20105;-62
2021/11/30 04:35:20;;;;;;;7.28;5.55;;;;;;;;;;4219145;34;20286;-62
2021/11/30 04:37:46;;;;;;;7.20;4.65;;;;;;;;;;4219360;34;20185;-62
2021/11/30 04:40:14;;;;;;;9.13;5.30;;;;;;;;;;4219024;34;20133;-62
2021/11/30 04:42:42;;;;;;;12.63;5.15;;;;;;;;;;4218978;34;20121;-62
2021/11/30 04:46:13;;;;;;;12.05;5.95;;;;;;;;;;4219053;34;20555;-62
2021/11/30 04:48:05;;;;;;;;;;;;;;;;;;4209740;34;20098;-62
2021/11/30 04:50:35;;;;;;;6.75;5.40;;;;;;;;;;4218921;34;20084;-62
2021/11/30 04:53:04;;;;;;;9.35;5.28;;;;;;;;;;4218836;34;20116;-62
2021/11/30 04:55:30;;;;;;;9.32;5.35;;;;;;;;;;4218844;34;20097;-62
2021/11/30 04:58:00;;;;;;;10.20;6.10;;;;;;;;;;4218792;34;20089;-62
2021/11/30 05:00:28;;;;;;;8.35;5.50;;;;;;;;;;4218735;34;20094;-62
2021/11/30 05:02:54;;;;;;;10.52;6.20;;;;;;;;;;4218820;34;20093;-63
2021/11/30 05:05:20;;;;;;;13.15;6.97;;;;;;;;;;4218800;34;20180;-63
2021/11/30 05:07:47;;;;;;;10.02;6.82;;;;;;;;;;4205882;34;20195;-63
2021/11/30 05:10:13;;;;;;;7.50;6.12;;;;;;;;;;4218774;34;20193;-63
2021/11/30 05:12:40;;;;;;;11.43;7.18;;;;;;;;;;4205881;34;20105;-63
2021/11/30 05:15:08;;;;;;;9.75;6.87;;;;;;;;;;4218780;34;20120;-64
2021/11/30 05:17:34;;;;;;;8.88;7.03;;;;;;;;;;4205801;34;20133;-63
2021/11/30 05:20:01;;;;;;;11.88;7.03;;;;;;;;;;4205950;34;20114;-63
2021/11/30 05:22:28;;;;;;;15.70;6.87;;;;;;;;;;4218027;34;20109;-63
2021/11/30 05:24:54;;;;;;;10.77;6.62;;;;;;;;;;4218947;34;20211;-64
2021/11/30 05:27:21;;;;;;;11.30;7.00;;;;;;;;;;4218657;34;20213;-64
2021/11/30 05:29:47;;;;;;;11.50;7.72;;;;;;;;;;4218713;34;20109;-64
2021/11/30 05:32:13;;;;;;;12.10;7.45;;;;;;;;;;4205711;34;20499;-64
2021/11/30 05:34:39;;;;;;;12.40;8.05;;;;;;;;;;4218658;34;20120;-64
2021/11/30 05:37:05;;;;;;;12.50;7.75;;;;;;;;;;4218436;34;20093;-64
2021/11/30 05:39:31;;;;;;;11.15;7.78;;;;;;;;;;4218412;34;20148;-63
2021/11/30 05:41:57;;;;;;;11.45;6.85;;;;;;;;;;4218328;34;20096;-64
2021/11/30 05:44:24;;;;;;;9.70;7.32;;;;;;;;;;4218270;34;20101;-64
2021/11/30 05:46:50;;;;;;;11.45;7.40;;;;;;;;;;4218250;34;20135;-64
2021/11/30 05:49:17;;;;;;;10.75;7.07;;;;;;;;;;4218365;34;20117;-65
2021/11/30 05:51:43;;;;;;;18.98;8.98;;;;;;;;;;4218161;34;20200;-64
2021/11/30 05:54:09;;;;;;;11.18;7.62;;;;;;;;;;4218225;34;20128;-64
2021/11/30 05:56:35;;;;;;;10.13;7.18;;;;;;;;;;4205117;34;20196;-64
2021/11/30 05:59:02;;;;;;;8.90;7.07;;;;;;;;;;4205022;34;20118;-67
2021/11/30 06:01:31;;;;;;;11.43;7.75;;;;;;;;;;4218137;34;20147;-65
2021/11/30 06:03:59;;;;;;;14.02;8.05;;;;;;;;;;4218127;34;20109;-64
2021/11/30 06:06:30;;;;;;;11.48;8.13;;;;;;;;;;4218064;34;20108;-64
2021/11/30 06:08:57;;;;;;;11.73;7.90;;;;;;;;;;4218061;34;20137;-64
2021/11/30 06:11:23;;;;;;;11.05;8.07;;;;;;;;;;4218126;34;20196;-64
2021/11/30 06:13:49;;;;;;;10.43;8.02;;;;;;;;;;4205269;34;20107;-65
2021/11/30 06:16:15;;;;;;;10.93;7.90;;;;;;;;;;4218045;34;20519;-65
2021/11/30 06:18:41;;;;;;;13.60;7.70;;;;;;;;;;4217758;34;20117;-63
2021/11/30 06:21:07;;;;;;;11.12;7.80;;;;;;;;;;4204902;34;20165;-64
2021/11/30 06:23:33;;;;;;;11.45;8.27;;;;;;;;;;4217941;34;20106;-64
2021/11/30 06:25:59;;;;;;;13.02;7.97;;;;;;;;;;4217871;34;20189;-64
2021/11/30 06:28:26;;;;;;;11.25;7.20;;;;;;;;;;4217873;34;20094;-64
2021/11/30 06:30:52;;;;;;;11.45;7.62;;;;;;;;;;4217711;34;20094;-64
2021/11/30 06:33:18;;;;;;;8.20;7.10;;;;;;;;;;4218072;34;20109;-64
2021/11/30 06:35:44;;;;;;;8.93;6.78;;;;;;;;;;4219948;34;20494;-64
2021/11/30 06:38:10;;;;;;;11.10;6.82;;;;;;;;;;4219998;34;20097;-64
2021/11/30 06:40:36;;;;;;;9.82;6.90;;;;;;;;;;4220088;34;20097;-64
2021/11/30 06:43:03;;;;;;;8.23;6.40;;;;;;;;;;4219740;34;20105;-64
2021/11/30 06:45:29;;;;;;;9.32;6.93;;;;;;;;;;4219956;34;20102;-64
2021/11/30 06:47:55;;;;;;;9.35;7.12;;;;;;;;;;4219843;34;20491;-64
2021/11/30 06:50:21;;;;;;;8.93;6.57;;;;;;;;;;4219987;34;20122;-64
2021/11/30 06:52:49;;;;;;;9.23;7.00;;;;;;;;;;4219842;34;20094;-64
2021/11/30 06:55:15;;;;;;;10.15;6.90;;;;;;;;;;4206927;34;20116;-64
2021/11/30 06:57:42;;;;;;;10.75;7.40;;;;;;;;;;4206675;34;20549;-65
2021/11/30 07:00:10;;;;;;;11.38;6.53;;;;;;;;;;4206615;34;20116;-65
2021/11/30 07:02:36;;;;;;;8.55;6.55;;;;;;;;;;4219865;34;20212;-65
2021/11/30 07:05:26;;;;;;;14.23;7.68;;;;;;;;;;4219544;34;20179;-64
2021/11/30 07:10:48;;;;;;;8.25;6.85;;;;;;;;;;4208709;34;20223;-65
2021/11/30 07:13:25;;;;;;;10.68;7.28;;;;;;;;;;4219939;34;20129;-65
2021/11/30 07:15:59;;;;;;;9.77;6.93;;;;;;;;;;4206532;34;20113;-65
2021/11/30 07:18:26;;;;;;;9.00;6.90;;;;;;;;;;4206659;34;20104;-65
2021/11/30 07:20:53;;;;;;;10.98;8.30;;;;;;;;;;4206181;34;20104;-65
2021/11/30 07:23:19;;;;;;;11.35;6.18;;;;;;;;;;4219451;34;20217;-64
2021/11/30 07:25:45;;;;;;;8.75;7.30;;;;;;;;;;4206485;34;20124;-64
2021/11/30 07:28:12;;;;;;;9.50;7.18;;;;;;;;;;4219524;34;20510;-65
2021/11/30 07:30:38;;;;;;;11.98;7.97;;;;;;;;;;4206388;34;20260;-64
2021/11/30 07:33:05;;;;;;;13.00;7.60;;;;;;;;;;4219304;34;20200;-65
2021/11/30 07:35:31;;;;;;;12.00;8.63;;;;;;;;;;4219404;34;20117;-64
2021/11/30 07:37:58;;;;;;;10.30;7.93;;;;;;;;;;4206318;34;20536;-64
2021/11/30 07:40:24;;;;;;;12.40;7.47;;;;;;;;;;4206433;34;20485;-64
2021/11/30 07:42:50;;;;;;;12.13;7.43;;;;;;;;;;4219292;34;20117;-64
2021/11/30 07:45:16;;;;;;;9.20;7.03;;;;;;;;;;4219060;34;20109;-64
2021/11/30 07:47:43;;;;;;;8.75;7.68;;;;;;;;;;4219293;34;20195;-64
2021/11/30 07:50:09;;;;;;;9.98;7.05;;;;;;;;;;4219412;34;20466;-64
2021/11/30 07:52:43;;;;;;;14.43;7.97;;;;;;;;;;4219354;34;20129;-64
2021/11/30 07:55:12;;;;;;;9.82;7.87;;;;;;;;;;4207509;34;20501;-64
2021/11/30 07:57:39;;;;;;;10.13;8.23;;;;;;;;;;4206565;34;20135;-64
2021/11/30 08:00:08;;;;;;;11.05;7.55;;;;;;;;;;4219157;34;20157;-64
2021/11/30 08:02:34;;;;;;;10.85;8.43;;;;;;;;;;4219147;34;20124;-63
2021/11/30 08:05:00;;;;;;;8.57;7.53;;;;;;;;;;4219016;34;20140;-64
2021/11/30 08:07:26;;;;;;;19.77;8.27;;;;;;;;;;4219271;34;20196;-64
2021/11/30 08:09:53;;;;;;;10.25;8.07;;;;;;;;;;4219402;34;20102;-64
2021/11/30 08:12:19;;;;;;;13.70;8.95;;;;;;;;;;4219122;34;20170;-65
2021/11/30 08:14:45;;;;;;;13.77;8.05;;;;;;;;;;4219111;34;20105;-62
2021/11/30 08:17:14;;;;;;;12.88;8.90;;;;;;;;;;4219035;34;20121;-62
2021/11/30 08:19:41;;;;;;;11.15;7.68;;;;;;;;;;4218900;34;20517;-62
2021/11/30 08:22:08;;;;;;;12.57;10.63;;;;;;;;;;4218842;34;20093;-61
2021/11/30 08:24:35;;;;;;;10.70;8.13;;;;;;;;;;4218972;34;20129;-61
2021/11/30 08:27:03;;;;;;;10.40;6.40;;;;;;;;;;4218920;34;20192;-61
2021/11/30 08:29:31;;;;;;;10.98;7.75;;;;;;;;;;4218860;34;20129;-61
2021/11/30 08:31:58;;;;;;;9.40;7.12;;;;;;;;;;4218881;34;20205;-61
2021/11/30 08:34:24;;;;;;;8.93;6.57;;;;;;;;;;4218799;34;20195;-61
2021/11/30 08:36:50;;;;;;;10.48;6.75;;;;;;;;;;4218919;34;20111;-61
2021/11/30 08:39:16;;;;;;;11.43;7.93;;;;;;;;;;4218897;34;20505;-62
2021/11/30 08:41:42;;;;;;;10.52;7.43;;;;;;;;;;4218841;34;20101;-61
2021/11/30 08:44:08;;;;;;;9.27;8.13;;;;;;;;;;4218934;34;20545;-62
2021/11/30 08:46:34;;;;;;;10.02;7.15;;;;;;;;;;4218840;34;20116;-62
2021/11/30 08:49:00;;;;;;;9.75;7.60;;;;;;;;;;4218870;34;20113;-62
2021/11/30 08:51:26;;;;;;;13.20;7.93;;;;;;;;;;4218775;34;20525;-65
2021/11/30 08:53:52;;;;;;;12.25;8.35;;;;;;;;;;4205687;34;20125;-62
2021/11/30 08:56:18;;;;;;;11.95;7.22;;;;;;;;;;4217875;34;20112;-62
2021/11/30 08:58:45;;;;;;;11.00;8.30;;;;;;;;;;4218443;34;20124;-62
2021/11/30 09:01:11;;;;;;;16.37;7.37;;;;;;;;;;4218770;34;20125;-63
2021/11/30 09:03:37;;;;;;;10.98;6.90;;;;;;;;;;4218638;34;20208;-64
2021/11/30 09:06:03;;;;;;;9.80;7.32;;;;;;;;;;4205841;34;20530;-64
2021/11/30 09:08:29;;;;;;;11.43;6.97;;;;;;;;;;4218571;34;20140;-63
2021/11/30 09:10:55;;;;;;;9.82;7.07;;;;;;;;;;4218523;34;20490;-63
2021/11/30 09:13:21;;;;;;;10.40;7.30;;;;;;;;;;4218526;34;20138;-63
2021/11/30 09:15:47;;;;;;;10.43;6.93;;;;;;;;;;4218472;34;20108;-65
2021/11/30 09:18:13;;;;;;;9.68;7.12;;;;;;;;;;4218416;34;20109;-66
2021/11/30 09:20:40;;;;;;;9.32;6.43;;;;;;;;;;4218234;34;20117;-64
2021/11/30 09:23:06;;;;;;;8.57;6.53;;;;;;;;;;4205504;34;20204;-65
2021/11/30 09:25:32;;;;;;;11.25;7.53;;;;;;;;;;4218494;34;20144;-64
2021/11/30 09:28:01;;;;;;;9.60;6.80;;;;;;;;;;4218369;34;20135;-63
2021/11/30 09:30:28;;;;;;;8.73;6.18;;;;;;;;;;4218500;34;20182;-63
2021/11/30 09:32:55;;;;;;;7.93;5.35;;;;;;;;;;4218322;34;20123;-63
2021/11/30 09:35:22;;;;;;;6.90;5.50;;;;;;;;;;4218585;34;20216;-64
2021/11/30 09:37:50;;;;;;;6.82;5.12;;;;;;;;;;4205736;34;20093;-64
2021/11/30 09:40:19;;;;;;;4.82;3.95;;;;;;;;;;4218451;34;20125;-63
2021/11/30 09:42:48;;;;;;;5.87;4.70;;;;;;;;;;4205563;34;20114;-63
2021/11/30 09:45:14;;;;;;;4.82;4.32;;;;;;;;;;4205600;34;20121;-64
2021/11/30 09:47:41;;;;;;;5.20;4.65;;;;;;;;;;4218314;34;20209;-62
2021/11/30 09:50:11;;;;;;;4.65;4.15;;;;;;;;;;4205420;34;20113;-63
2021/11/30 09:52:37;;;;;;;8.27;4.72;;;;;;;;;;4205398;34;20176;-62
2021/11/30 09:55:04;;;;;;;6.85;5.15;;;;;;;;;;4194111;34;20441;-61
2021/11/30 09:57:31;;;;;;;5.40;4.70;;;;;;;;;;4205353;34;20144;-62
2021/11/30 09:59:57;;;;;;;5.25;4.20;;;;;;;;;;4217972;34;20109;-63
2021/11/30 10:02:23;;;;;;;4.82;4.00;;;;;;;;;;4205274;34;20107;-61
2021/11/30 10:04:50;;;;;;;4.93;4.18;;;;;;;;;;4218129;34;20101;-62
2021/11/30 10:07:16;;;;;;;5.62;4.20;;;;;;;;;;4216595;34;20665;-62
2021/11/30 10:09:42;;;;;;;6.97;4.50;;;;;;;;;;4217324;34;20463;-62
2021/11/30 10:12:12;;;;;;;5.70;4.35;;;;;;;;;;4218249;34;20113;-63
2021/11/30 10:14:42;;;;;;;8.25;4.72;;;;;;;;;;4205286;34;20123;-62
2021/11/30 10:17:21;;;;;;;6.18;4.75;;;;;;;;;;4218086;34;20096;-59
2021/11/30 10:20:00;;;;;;;6.07;4.65;;;;;;;;;;4217803;34;20097;-59
2021/11/30 10:22:45;;;;;;;9.13;4.82;;;;;;;;;;4217893;34;20465;-61
2021/11/30 10:25:17;;;;;;;6.12;5.07;;;;;;;;;;4217919;34;20597;-59
2021/11/30 10:27:54;;;;;;;6.65;5.12;;;;;;;;;;4218012;34;20450;-59
2021/11/30 10:30:24;;;;;;;8.05;5.28;;;;;;;;;;4217725;34;20430;-59
2021/11/30 10:32:51;;;;;;;6.55;5.07;;;;;;;;;;4217762;34;20089;-59
2021/11/30 10:35:19;;;;;;;8.02;5.20;;;;;;;;;;4217977;34;20157;-60
2021/11/30 10:37:46;;;;;;;5.60;4.47;;;;;;;;;;4217795;34;20221;-60
2021/11/30 10:40:22;;;;;;;6.65;4.93;;;;;;;;;;4217650;34;20090;-59
2021/11/30 10:42:53;;;;;;;6.90;4.85;;;;;;;;;;4217902;34;20212;-59
2021/11/30 10:45:32;;;;;;;4.97;4.47;;;;;;;;;;4217777;34;20133;-58
2021/11/30 10:48:06;;;;;;;5.35;4.28;;;;;;;;;;4217546;34;20125;-58
2021/11/30 10:50:37;;;;;;;7.97;4.50;;;;;;;;;;4217642;34;20101;-58
2021/11/30 10:53:14;;;;;;;6.90;4.50;;;;;;;;;;4204893;34;20117;-59
2021/11/30 10:55:45;;;;;;;6.78;4.90;;;;;;;;;;4217485;34;20143;-58
2021/11/30 10:58:11;;;;;;;6.07;4.30;;;;;;;;;;4204864;34;20093;-58
2021/11/30 11:00:37;;;;;;;6.68;4.70;;;;;;;;;;4204593;34;20102;-58
2021/11/30 11:03:11;;;;;;;5.40;4.45;;;;;;;;;;4217431;34;20148;-58
2021/11/30 11:05:42;;;;;;;7.15;4.60;;;;;;;;;;4217580;34;20204;-57
2021/11/30 11:08:10;;;;;;;6.37;4.75;;;;;;;;;;4217431;34;20569;-59
2021/11/30 11:10:39;;;;;;;6.37;4.53;;;;;;;;;;4217527;34;20105;-59
2021/11/30 11:13:28;;;;;;;6.10;4.47;;;;;;;;;;4217361;34;20125;-59
2021/11/30 11:15:57;;;;;;;6.75;4.78;;;;;;;;;;4192952;34;20456;-59
2021/11/30 11:18:26;;;;;;;5.10;4.60;;;;;;;;;;4217430;34;20093;-58
2021/11/30 11:21:09;;;;;;;6.45;4.22;;;;;;;;;;4205968;34;20136;-58
2021/11/30 11:23:36;;;;;;;5.03;4.25;;;;;;;;;;4206619;34;20453;-59
2021/11/30 11:26:24;;;;;;;5.43;4.57;;;;;;;;;;4219514;34;20112;-59
2021/11/30 11:28:52;;;;;;;5.87;4.37;;;;;;;;;;4217482;34;20125;-58
2021/11/30 11:31:19;;;;;;;5.43;4.05;;;;;;;;;;4218376;34;20101;-58
2021/11/30 11:33:45;;;;;;;5.15;4.65;;;;;;;;;;4218147;34;20601;-59
2021/11/30 11:36:11;;;;;;;4.57;4.18;;;;;;;;;;4218083;34;20193;-59
2021/11/30 11:38:40;;;;;;;4.70;3.95;;;;;;;;;;4218088;34;20121;-56
2021/11/30 11:41:08;;;;;;;4.40;3.65;;;;;;;;;;4218127;34;20171;-57
2021/11/30 11:43:37;;;;;;;4.90;3.62;;;;;;;;;;4218468;34;20437;-58
2021/11/30 11:46:03;;;;;;;4.30;3.25;;;;;;;;;;4218162;34;20132;-57
2021/11/30 11:48:29;;;;;;;4.68;3.20;;;;;;;;;;4206386;34;20100;-59
2021/11/30 11:51:01;;;;;;;4.10;3.58;;;;;;;;;;4206401;34;20121;-58
2021/11/30 11:53:50;;;;;;;5.28;3.70;;;;;;;;;;4219429;34;20197;-60
2021/11/30 11:56:24;;;;;;;4.18;3.35;;;;;;;;;;4215434;34;20132;-59
2021/11/30 11:59:15;;;;;;;3.87;3.35;;;;;;;;;;4219291;34;20140;-59
2021/11/30 12:01:47;;;;;;;5.53;3.37;;;;;;;;;;4219613;34;20582;-59
2021/11/30 12:04:18;;;;;;;3.92;3.47;;;;;;;;;;4206309;34;20201;-59
2021/11/30 12:07:01;;;;;;;5.70;3.58;;;;;;;;;;4219170;34;20103;-60
2021/11/30 12:09:34;;;;;;;4.25;2.90;;;;;;;;;;4219380;34;20199;-60
2021/11/30 12:12:09;;;;;;;4.40;3.42;;;;;;;;;;4219179;34;20129;-60
2021/11/30 12:14:37;;;;;;;3.75;3.30;;;;;;;;;;4219092;34;20189;-60
2021/11/30 12:17:15;;;;;;;4.57;3.50;;;;;;;;;;4218973;34;20143;-60
2021/11/30 12:19:51;;;;;;;5.35;3.45;;;;;;;;;;4205928;34;20085;-60
2021/11/30 12:22:43;;;;;;;4.50;3.62;;;;;;;;;;4205969;34;20498;-60
2021/11/30 12:25:30;;;;;;;4.85;2.97;;;;;;;;;;4219080;34;20094;-60
2021/11/30 12:27:56;;;;;;;4.03;3.00;;;;;;;;;;4205880;34;20120;-60
2021/11/30 12:30:38;;;;;;;3.50;2.70;;;;;;;;;;4218914;34;20109;-60
2021/11/30 12:33:12;;;;;;;4.53;3.30;;;;;;;;;;4205821;34;20192;-61
2021/11/30 12:35:50;;;;;;;4.25;3.15;;;;;;;;;;4218914;34;20151;-61
2021/11/30 12:38:22;;;;;;;3.30;3.00;;;;;;;;;;4218797;34;20525;-60
2021/11/30 12:40:49;;;;;;;3.62;3.12;;;;;;;;;;4218748;34;20112;-61
2021/11/30 12:43:22;;;;;;;3.65;3.30;;;;;;;;;;4205874;34;20141;-62
2021/11/30 12:45:57;;;;;;;3.67;3.35;;;;;;;;;;4218739;34;20124;-62
2021/11/30 12:48:32;;;;;;;5.95;4.10;;;;;;;;;;4205783;34;20522;-61
2021/11/30 12:51:21;;;;;;;4.10;3.37;;;;;;;;;;4218625;34;20208;-61
2021/11/30 12:53:47;;;;;;;5.53;4.50;;;;;;;;;;4218719;34;20132;-58
2021/11/30 12:56:13;;;;;;;5.75;5.00;;;;;;;;;;4218663;34;20117;-59
2021/11/30 12:58:42;;;;;;;7.28;6.57;;;;;;;;;;4218665;34;20100;-59
2021/11/30 13:01:13;;;;;;;6.62;5.90;;;;;;;;;;4218677;34;20093;-59
2021/11/30 13:03:39;;;;;;;5.18;4.60;;;;;;;;;;4205881;34;20121;-60
2021/11/30 13:06:05;;;;;;;5.10;3.85;;;;;;;;;;4218689;34;20216;-59
2021/11/30 13:08:31;;;;;;;4.20;3.80;;;;;;;;;;4218675;34;20208;-59
2021/11/30 13:10:58;;;;;;;6.12;4.07;;;;;;;;;;4204470;34;20117;-59
2021/11/30 13:13:29;;;;;;;4.20;2.75;;;;;;;;;;4204018;34;20124;-58
2021/11/30 13:15:59;;;;;;;4.43;3.35;;;;;;;;;;4217461;34;20086;-59
2021/11/30 13:18:29;;;;;;;4.28;3.40;;;;;;;;;;4217266;34;20105;-59
2021/11/30 13:20:56;;;;;;;3.28;2.83;;;;;;;;;;4217793;34;20125;-59
2021/11/30 13:23:24;;;;;;;3.62;3.22;;;;;;;;;;4218621;34;20122;-59
2021/11/30 13:25:50;;;;;;;4.57;3.78;;;;;;;;;;4218556;34;20097;-59
2021/11/30 13:28:20;;;;;;;4.40;3.78;;;;;;;;;;4218576;34;20140;-58
2021/11/30 13:30:49;;;;;;;4.97;4.03;;;;;;;;;;4218464;34;20125;-59
2021/11/30 13:33:19;;;;;;;4.45;3.67;;;;;;;;;;4218619;34;20109;-59
2021/11/30 13:35:50;;;;;;;5.93;5.00;;;;;;;;;;4218476;34;20141;-59
2021/11/30 13:38:19;;;;;;;4.65;4.15;;;;;;;;;;4218553;34;20104;-59
2021/11/30 13:40:51;;;;;;;5.43;4.20;;;;;;;;;;4218578;34;20172;-59
2021/11/30 13:43:26;;;;;;;4.50;4.10;;;;;;;;;;4218032;34;20124;-59
2021/11/30 13:45:55;;;;;;;5.78;4.22;;;;;;;;;;4218698;34;20109;-60
2021/11/30 13:48:23;;;;;;;4.53;3.80;;;;;;;;;;4205433;34;20129;-59
2021/11/30 13:50:50;;;;;;;3.85;3.45;;;;;;;;;;4218455;34;20092;-58
2021/11/30 13:53:18;;;;;;;6.25;4.40;;;;;;;;;;4218175;34;20556;-59
2021/11/30 13:55:47;;;;;;;4.00;3.33;;;;;;;;;;4217886;34;20110;-58
2021/11/30 13:58:32;;;;;;;5.60;4.72;;;;;;;;;;4218271;34;20118;-59
2021/11/30 14:03:58;;;;;;;5.82;3.90;;;;;;;;;;4201424;34;20518;-60
2021/11/30 14:06:31;;;;;;;4.18;3.72;;;;;;;;;;4218218;34;20966;-59
2021/11/30 14:09:05;;;;;;;4.65;3.95;;;;;;;;;;4205496;34;20132;-58
2021/11/30 14:11:32;;;;;;;5.65;5.05;;;;;;;;;;4218399;34;20212;-58
2021/11/30 14:13:59;;;;;;;5.00;4.00;;;;;;;;;;4205224;34;20513;-59
2021/11/30 14:16:25;;;;;;;4.78;4.22;;;;;;;;;;4218181;34;20454;-59
2021/11/30 14:18:54;;;;;;;4.62;4.10;;;;;;;;;;4205111;34;20128;-58
2021/11/30 14:21:26;;;;;;;4.60;4.10;;;;;;;;;;4180022;34;20114;-59
2021/11/30 14:24:10;;;;;;;5.53;4.00;;;;;;;;;;4204082;34;20117;-59
2021/11/30 14:26:41;;;;;;;5.28;4.43;;;;;;;;;;4204073;34;20132;-59
2021/11/30 14:29:13;;;;;;;6.87;3.83;;;;;;;;;;4204233;34;20197;-58
2021/11/30 14:31:59;;;;;;;5.12;3.62;;;;;;;;;;4204037;34;20201;-59
2021/11/30 14:34:46;;;;;;;5.97;3.97;;;;;;;;;;4204075;34;20141;-59
2021/11/30 14:37:28;;;;;;;5.68;3.55;;;;;;;;;;4203919;34;20135;-60
2021/11/30 14:40:13;;;;;;;5.22;3.80;;;;;;;;;;4203885;34;20526;-59
2021/11/30 14:42:48;;;;;;;4.60;3.65;;;;;;;;;;4179047;34;20106;-59
2021/11/30 14:45:39;;;;;;;4.57;3.95;;;;;;;;;;4202479;34;20537;-61
2021/11/30 14:48:11;;;;;;;6.25;4.85;;;;;;;;;;4203788;34;20133;-59
2021/11/30 14:50:52;;;;;;;6.70;3.78;;;;;;;;;;4204003;34;20191;-59
2021/11/30 14:53:21;;;;;;;6.03;4.10;;;;;;;;;;4203908;34;20450;-59
2021/11/30 14:55:55;;;;;;;4.82;3.87;;;;;;;;;;4209872;34;20113;-59
2021/11/30 14:58:30;;;;;;;5.93;4.25;;;;;;;;;;4219728;34;20196;-59
2021/11/30 15:00:56;;;;;;;5.65;3.80;;;;;;;;;;4216970;34;20125;-59
2021/11/30 15:03:43;;;;;;;5.60;3.78;;;;;;;;;;4206515;34;20128;-59
2021/11/30 15:06:23;;;;;;;4.30;3.90;;;;;;;;;;4206744;34;20537;-59
2021/11/30 15:08:53;;;;;;;5.32;3.60;;;;;;;;;;4219830;34;20117;-59
2021/11/30 15:11:22;;;;;;;5.95;4.80;;;;;;;;;;4219325;34;20121;-59
2021/11/30 15:14:06;;;;;;;5.03;3.92;;;;;;;;;;4219611;34;20517;-58
2021/11/30 15:16:36;;;;;;;5.22;3.62;;;;;;;;;;4219447;34;20090;-59
2021/11/30 15:19:09;;;;;;;6.62;4.12;;;;;;;;;;4219701;34;20117;-59
2021/11/30 15:21:37;;;;;;;4.72;3.33;;;;;;;;;;4194603;34;20455;-60
2021/11/30 15:24:04;;;;;;;3.87;3.47;;;;;;;;;;4219705;34;20100;-60